Flight Track Log - Related Links

Times and Time Zones

All times are in EDT time to prevent confusion due to time zone crossing. See the N942CE flight status page for this flight to view local times or setup timezone preferences in your user account.

Time Position Orientation Groundspeed Altitude Reporting Facility
EDT Latitude Longitude Course Direction KTS MPH feet Rate Location/Type
Tue 10:09:43 PM 37.8067 -87.1303 29° Northeast 156 180 3,400  Level Indianapolis Center
Tue 10:10:44 PM 37.8522 -87.1100 19° North 169 194 5,000 1,508 Climbing Indianapolis Center
Tue 10:12:46 PM 37.9408 -87.0581 25° Northeast 176 203 8,000 1,475 Climbing Indianapolis Center
Tue 10:13:47 PM 37.9875 -87.0297 26° Northeast 186 214 9,500 1,525 Climbing Indianapolis Center
Tue 10:14:00 PM 38.1011 -86.9119 29° Northeast  Level Estimated
Tue 10:14:48 PM 38.0358 -87.0017 25° Northeast 189 217 11,100  Level Indianapolis Center
Tue 10:15:00 PM 38.1614 -86.8692 29° Northeast  Level Estimated
Tue 10:15:49 PM 38.0914 -86.9683 25° Northeast 184 212 13,100  Level Indianapolis Center
Tue 10:17:00 PM 38.1610 -86.9094 28° Northeast  Level FlightAware Approximate
Tue 10:18:52 PM 38.2364 -86.8844 24° Northeast 197 227 17,700  Level Indianapolis Center
Tue 10:19:53 PM 38.2836 -86.8561 25° Northeast 190 219 19,100 1,328 Climbing Indianapolis Center
Tue 10:20:54 PM 38.3322 -86.8275 25° Northeast 192 221 20,400 1,279 Climbing Indianapolis Center
Tue 10:21:55 PM 38.3811 -86.7975 26° Northeast 195 224 21,700 1,279 Climbing Indianapolis Center
Tue 10:22:56 PM 38.4306 -86.7675 25° Northeast 197 227 23,000 1,180 Climbing Indianapolis Center
Tue 10:23:57 PM 38.4794 -86.7403 24° Northeast 194 223 24,100 934 Climbing Indianapolis Center
Tue 10:24:00 PM 38.5995 -86.6503 24° Northeast  Level FlightAware Approximate
Tue 10:24:58 PM 38.5286 -86.7086 27° Northeast 198 228 24,900  Level Indianapolis Center
Tue 10:25:59 PM 38.5853 -86.6758 24° Northeast 221 254 25,000 49 Climbing Indianapolis Center
Tue 10:27:00 PM 38.6622 -86.6283 26° Northeast 254 292 25,000  Level Indianapolis Center
Tue 10:28:01 PM 38.7294 -86.5889 25° Northeast 263 303 25,000  Level Indianapolis Center
Tue 10:29:02 PM 38.7972 -86.5494 24° Northeast 265 305 25,000  Level Indianapolis Center
Tue 10:30:04 PM 38.8650 -86.5072 26° Northeast 268 308 25,000  Level Indianapolis Center
Tue 10:31:05 PM 38.9300 -86.4683 25° Northeast 268 308 25,000  Level Indianapolis Center
Tue 10:32:06 PM 38.9992 -86.4278 24° Northeast 269 310 25,000  Level Indianapolis Center
Tue 10:33:07 PM 39.0667 -86.3856 26° Northeast 269 310 25,000  Level Indianapolis Center
Tue 10:34:08 PM 39.1353 -86.3444 25° Northeast 270 311 25,000  Level Indianapolis Center
Tue 10:35:09 PM 39.2025 -86.3028 26° Northeast 267 307 25,000  Level Indianapolis Center
Tue 10:36:10 PM 39.2703 -86.2619 25° Northeast 267 307 25,000  Level Indianapolis Center
Tue 10:37:11 PM 39.3500 -86.2125 26° Northeast 270 311 25,000  Level Indianapolis Center
Tue 10:38:12 PM 39.4172 -86.1711 25° Northeast 269 310 25,000  Level Indianapolis Center
Tue 10:39:13 PM 39.4842 -86.1297 26° Northeast 267 307 25,000  Level Indianapolis Center
Tue 10:40:15 PM 39.5511 -86.0878 26° Northeast 267 307 25,000  Level Indianapolis Center
Tue 10:41:16 PM 39.6181 -86.0469 25° Northeast 266 306 25,000  Level Indianapolis Center
Tue 10:42:17 PM 39.6850 -86.0047 26° Northeast 268 308 25,000  Level Indianapolis Center
Tue 10:43:18 PM 39.7525 -85.9644 25° Northeast 267 307 25,000  Level Indianapolis Center
Tue 10:44:19 PM 39.8197 -85.9214 26° Northeast 268 308 25,000  Level Indianapolis Center
Tue 10:45:21 PM 39.8872 -85.8800 25° Northeast 267 307 25,000  Level Indianapolis Center
Tue 10:46:22 PM 39.9536 -85.8383 26° Northeast 265 305 25,000  Level Indianapolis Center
Tue 10:47:23 PM 40.0308 -85.7897 26° Northeast 264 304 25,000  Level Indianapolis Center
Tue 10:48:24 PM 40.0975 -85.7500 25° Northeast 263 303 25,000  Level Indianapolis Center
Tue 10:49:09 PM 40.1417 -85.7197 28° Northeast 265 305 25,000  Level Chicago Center
Tue 10:50:10 PM 40.2069 -85.6794 25° Northeast 260 299 25,000  Level Chicago Center
Tue 10:51:11 PM 40.2725 -85.6381 26° Northeast 260 299 25,000  Level Chicago Center
Tue 10:52:12 PM 40.3389 -85.5967 25° Northeast 262 302 25,000 -264 Level Chicago Center
Tue 10:54:13 PM 40.4736 -85.5111 26° Northeast 274 315 24,200 -330 Descending Chicago Center
Tue 10:55:14 PM 40.5431 -85.4664 26° Northeast 277 319 24,000 -98 Descending Chicago Center
Tue 10:56:15 PM 40.6119 -85.4222 26° Northeast 275 316 24,000  Level Chicago Center
Tue 10:57:16 PM 40.6794 -85.3906 20° North 266 306 24,000 -148 Level Chicago Center
Tue 10:58:17 PM 40.7481 -85.3542 22° Northeast 266 306 23,700 -639 Descending Chicago Center
Tue 10:59:18 PM 40.8247 -85.2850 34° Northeast 276 318 22,700 -984 Descending Chicago Center
Tue 11:00:19 PM 40.8869 -85.2219 37° Northeast 282 325 21,700 -836 Descending Chicago Center
Tue 11:01:20 PM 40.9511 -85.1600 36° Northeast 285 328 21,000 -347 Descending Chicago Center
Tue 11:02:20 PM 41.0128 -85.1003 36° Northeast 280 322 21,000  Level Chicago Center
Tue 11:03:21 PM 41.0736 -85.0414 36° Northeast 275 316 21,000  Level Chicago Center
Tue 11:04:22 PM 41.1331 -84.9825 37° Northeast 270 311 21,000  Level Chicago Center
Tue 11:05:23 PM 41.1933 -84.9217 37° Northeast 273 314 21,000  Level Chicago Center
Tue 11:07:09 PM 41.3019 -84.8181 36° Northeast 278 320 21,000  Level Cleveland Center
Tue 11:07:24 PM 41.3142 -84.8036 42° Northeast 273 314 21,000  Level Chicago Center
Tue 11:08:25 PM 41.3736 -84.7439 37° Northeast 270 311 21,000 -49 Level Chicago Center
Tue 11:09:26 PM 41.4344 -84.6847 36° Northeast 271 312 20,900 -787 Descending Chicago Center
Tue 11:10:27 PM 41.4947 -84.6219 38° Northeast 276 318 19,400 -1,631 Descending Chicago Center
Tue 11:11:09 PM 41.5486 -84.5733 34° Northeast 283 326 18,100 -1,706 Descending Cleveland Center
Tue 11:12:09 PM 41.6133 -84.5050 38° Northeast 283 326 16,500 -1,600 Descending Cleveland Center
Tue 11:13:09 PM 41.6758 -84.4450 36° Northeast 283 326 14,900 -1,650 Descending Cleveland Center
Tue 11:14:09 PM 41.7364 -84.3875 35° Northeast 277 319 13,200 -1,837 Descending Cleveland Center
Tue 11:14:47 PM 41.7775 -84.3425 39° Northeast 264 304 11,900 -1,700 Descending Cleveland Center
Tue 11:15:09 PM 41.7944 -84.3294 30° Northeast 266 306 11,500 -659 Descending Cleveland Center
Tue 11:16:18 PM 41.8636 -84.2583 37° Northeast 253 291 10,900 -750 Descending Cleveland Center
Tue 11:17:09 PM 41.9089 -84.2050 41° Northeast 246 283 10,000 -541 Descending Cleveland Center
Tue 11:18:09 PM 41.9669 -84.1497 35° Northeast 246 283 9,900 -50 Descending Cleveland Center
Tue 11:19:09 PM 42.0308 -84.1114 24° Northeast 246 283 9,900  Level Cleveland Center
Tue 11:20:09 PM 42.0886 -84.0586 34° Northeast 246 283 9,900  Level Cleveland Center
Tue 11:21:09 PM 42.1428 -83.9969 40° Northeast 246 283 9,900  Level Cleveland Center
Tue 11:21:27 PM 42.1597 -83.9811 35° Northeast 251 289 9,900  Level Cleveland Center
Tue 11:22:09 PM 42.1944 -83.9381 43° Northeast 246 283 9,900  Level Cleveland Center
Tue 11:22:28 PM 42.2136 -83.9250 27° Northeast 252 290 9,900 -1,329 Level Cleveland Center
Tue 11:24:29 PM 42.3256 -83.7961 40° Northeast 253 291 6,800 -1,582 Descending Cleveland Center
Tue 11:25:30 PM 42.3814 -83.7372 38° Northeast 247 284 5,100 -1,377 Descending Cleveland Center
Tue 11:26:31 PM 42.4331 -83.6778 40° Northeast 242 278 4,000 -645 Descending Cleveland Center
Tue 11:27:31 PM 42.4783 -83.6267 40° Northeast 203 234 3,800 -446 Descending Cleveland Center
Tue 11:28:32 PM 42.5233 -83.5781 39° Northeast 208 239 3,100 -590 Descending Cleveland Center
Tue 11:29:33 PM 42.5658 -83.5461 29° Northeast 190 219 2,600 -331 Descending Cleveland Center
Tue 11:30:39 PM 42.6203 -83.5375 North 164 189 2,400 -99 Descending Cleveland Center
Tue 11:31:34 PM 42.6542 -83.5194 21° North 160 184 2,400 -466 Level Cleveland Center
Tue 11:32:35 PM 42.6636 -83.4747 74° East 109 125 1,500 -885 Descending Cleveland Center
Tue 11:34:00 PM 42.6500 -83.4167 56° Northeast  Level FlightAware Approximate
Tue 11:41:00 PM 42.6656 -83.4205 56° Northeast  Level Estimated

Login

Don't have an account? Register now (free) for customized features, flight alerts, and more!